Time;durP1;ratioP1;P1;durP2;ratioP2;P2;SDS_P1;SDS_P2;PMS_P1;PMS_P2;Temp;Humidity;BMP_temperature;BMP_pressure;BME280_temperature;BME280_humidity;BME280_pressure;Samples;Min_cycle;Max_cycle;Signal;HPM_P1;HPM_P2
2021/03/12 00:20:17;;;;;;;12.75;4.67;;;;;;;5.58;80.46;98928.37;1811992;79;22764;-73
2021/03/12 00:22:44;;;;;;;34.83;16.45;;;;;;;5.53;80.46;98919.13;1785386;80;21148;-73
2021/03/12 00:25:15;;;;;;;10.95;4.22;;;;;;;5.57;80.47;98926.71;1754617;80;21171;-73
2021/03/12 00:27:41;;;;;;;9.55;4.78;;;;;;;5.54;80.47;98924.75;1785295;80;21187;-73
2021/03/12 00:30:09;;;;;;;13.35;5.10;;;;;;;5.54;80.49;98930.04;1785212;80;21419;-73
2021/03/12 00:32:35;;;;;;;8.00;3.92;;;;;;;5.53;80.48;98940.28;1785329;80;21175;-73
2021/03/12 00:35:04;;;;;;;8.38;4.58;;;;;;;5.53;80.48;98937.64;1785310;80;21561;-73
2021/03/12 00:37:30;;;;;;;10.15;5.17;;;;;;;5.56;80.49;98952.84;1785256;80;21154;-73
2021/03/12 00:39:56;;;;;;;12.98;6.20;;;;;;;5.58;80.47;98960.09;1785353;80;21002;-73
2021/03/12 00:42:22;;;;;;;14.03;4.97;;;;;;;5.60;80.45;98952.31;1784967;80;21148;-73
2021/03/12 00:44:49;;;;;;;11.60;4.28;;;;;;;5.62;80.43;98953.47;1785080;80;21144;-73
2021/03/12 00:47:15;;;;;;;9.30;3.42;;;;;;;5.66;80.44;98944.20;1784970;80;21604;-73
2021/03/12 00:49:41;;;;;;;8.13;3.45;;;;;;;5.68;80.45;98936.41;1785299;80;22120;-73
2021/03/12 00:52:08;;;;;;;10.03;3.77;;;;;;;5.74;80.46;98933.55;1785203;80;21124;-73
2021/03/12 00:54:34;;;;;;;5.95;3.22;;;;;;;5.82;80.44;98934.33;1785248;80;21195;-73
2021/03/12 00:57:02;;;;;;;8.38;2.95;;;;;;;5.87;80.45;98929.88;1785198;80;21149;-73
2021/03/12 00:59:28;;;;;;;8.70;3.40;;;;;;;5.92;80.40;98940.24;1785150;80;21572;-73
2021/03/12 01:01:54;;;;;;;10.30;3.52;;;;;;;5.92;80.35;98947.34;1785204;80;22097;-73
2021/03/12 01:04:21;;;;;;;8.78;3.33;;;;;;;5.94;80.32;98950.66;1785054;80;21183;-73
2021/03/12 01:06:47;;;;;;;8.05;3.22;;;;;;;5.97;80.29;98956.42;1785304;80;21140;-73
2021/03/12 01:09:13;;;;;;;8.13;2.33;;;;;;;5.98;80.25;98945.34;1785202;80;21192;-73
2021/03/12 01:11:39;;;;;;;10.82;2.87;;;;;;;5.98;80.22;98953.28;1785250;80;21140;-73
2021/03/12 01:14:05;;;;;;;5.58;3.25;;;;;;;5.97;80.17;98958.24;1785247;80;21189;-73
2021/03/12 01:16:32;;;;;;;9.33;3.60;;;;;;;5.97;80.16;98951.13;1772661;80;21164;-73
2021/03/12 01:18:58;;;;;;;8.93;2.50;;;;;;;6.00;80.13;98948.63;1759148;81;21125;-73
2021/03/12 01:21:24;;;;;;;4.65;2.08;;;;;;;6.01;80.10;98947.14;1762267;81;21140;-73
2021/03/12 01:23:52;;;;;;;6.90;2.77;;;;;;;6.03;80.05;98958.85;1762807;81;21258;-73
2021/03/12 01:26:20;;;;;;;5.65;1.77;;;;;;;6.03;80.01;98955.71;1762731;80;21264;-73
2021/03/12 01:28:46;;;;;;;5.45;1.52;;;;;;;6.02;79.97;98959.34;1762770;81;21163;-73
2021/03/12 01:31:12;;;;;;;7.53;1.85;;;;;;;6.02;79.92;98947.94;1762171;80;21164;-73
2021/03/12 01:33:39;;;;;;;6.65;1.50;;;;;;;6.02;79.89;98954.05;1762144;81;21165;-73
2021/03/12 01:36:06;;;;;;;4.92;1.20;;;;;;;6.01;79.84;98956.89;1762233;80;21688;-73
2021/03/12 01:38:32;;;;;;;4.65;2.15;;;;;;;5.99;79.85;98953.09;1762090;80;21205;-73
2021/03/12 01:40:58;;;;;;;8.43;1.87;;;;;;;6.00;79.78;98951.27;1762086;81;21172;-73
2021/03/12 01:43:24;;;;;;;6.87;1.67;;;;;;;5.99;79.77;98954.91;1762063;80;21171;-72
2021/03/12 01:45:51;;;;;;;5.78;1.42;;;;;;;5.99;79.71;98958.88;1761991;80;21147;-73
2021/03/12 01:48:22;;;;;;;2.77;1.02;;;;;;;5.98;79.66;98959.90;1762155;81;21096;-73
2021/03/12 01:50:53;;;;;;;5.25;1.47;;;;;;;5.98;79.61;98957.25;1762228;80;22098;-73
2021/03/12 01:53:21;;;;;;;2.62;1.20;;;;;;;5.96;79.56;98963.20;1761804;80;21192;-73
2021/03/12 01:55:48;;;;;;;3.33;1.15;;;;;;;5.91;79.54;98957.63;1762142;80;21144;-73
2021/03/12 01:58:14;;;;;;;2.80;1.62;;;;;;;5.89;79.52;98962.25;1762067;81;21236;-73
2021/03/12 02:00:41;;;;;;;4.00;1.02;;;;;;;5.85;79.52;98972.83;1761740;80;21143;-73
2021/03/12 02:03:08;;;;;;;4.15;1.05;;;;;;;5.83;79.48;98971.70;1762227;81;22113;-73
2021/03/12 02:05:35;;;;;;;4.12;1.32;;;;;;;5.79;79.45;98959.81;1762112;80;21190;-73
2021/03/12 02:08:03;;;;;;;9.40;6.35;;;;;;;5.74;79.42;98957.34;1762209;80;21132;-73
2021/03/12 02:10:29;;;;;;;9.78;6.72;;;;;;;5.71;79.43;98970.92;1762249;80;21112;-73
2021/03/12 02:13:20;;;;;;;3.42;1.67;;;;;;;5.68;79.42;98977.89;1746910;81;21140;-73
2021/03/12 02:15:57;;;;;;;7.33;2.45;;;;;;;5.68;79.42;98983.17;1761961;80;21214;-73
2021/03/12 02:18:47;;;;;;;5.92;1.98;;;;;;;5.66;79.42;98983.86;1762067;81;21179;-73
2021/03/12 02:21:45;;;;;;;6.45;1.50;;;;;;;5.70;79.44;98987.81;1811019;77;22504;-73
2021/03/12 02:24:33;;;;;;;2.98;1.77;;;;;;;5.66;79.43;98983.86;1796508;79;21176;-73
2021/03/12 02:27:07;;;;;;;2.02;1.20;;;;;;;5.66;79.46;98978.58;1796818;79;21211;-73
2021/03/12 02:29:34;;;;;;;4.75;1.55;;;;;;;5.63;79.46;98979.72;1796704;79;21588;-74
2021/03/12 02:32:02;;;;;;;3.87;0.95;;;;;;;5.62;79.47;98981.23;1796978;79;21131;-73
2021/03/12 02:34:36;;;;;;;3.17;0.95;;;;;;;5.60;79.49;98984.53;1796858;79;21101;-73
2021/03/12 02:37:03;;;;;;;6.05;1.60;;;;;;;5.58;79.50;98990.02;1796942;79;21477;-73
2021/03/12 02:39:31;;;;;;;3.92;2.58;;;;;;;5.56;79.52;98988.55;1796804;79;21189;-73
2021/03/12 02:41:59;;;;;;;5.75;1.82;;;;;;;5.54;79.52;98993.98;1796885;79;21174;-73
2021/03/12 02:44:27;;;;;;;6.70;3.52;;;;;;;5.53;79.53;98995.81;1796723;79;21132;-73
2021/03/12 02:46:57;;;;;;;9.88;3.05;;;;;;;5.53;79.54;98999.77;1763852;79;21138;-73
2021/03/12 02:49:24;;;;;;;6.20;2.12;;;;;;;5.52;79.57;98991.51;1763909;79;21111;-73
2021/03/12 02:51:50;;;;;;;4.70;1.40;;;;;;;5.53;79.58;98997.13;1763450;79;21421;-73
2021/03/12 02:54:16;;;;;;;4.05;1.12;;;;;;;5.51;79.59;98995.17;1796794;79;21469;-73
2021/03/12 02:56:43;;;;;;;3.75;1.30;;;;;;;5.48;79.62;98992.88;1796615;79;21132;-72
2021/03/12 02:59:11;;;;;;;3.70;1.47;;;;;;;5.46;79.64;99000.13;1796494;79;21195;-73
2021/03/12 03:01:37;;;;;;;8.48;1.80;;;;;;;5.45;79.68;99009.58;1796944;79;21118;-73
2021/03/12 03:04:04;;;;;;;2.62;1.12;;;;;;;5.41;79.71;99005.13;1796751;79;21287;-73
2021/03/12 03:06:30;;;;;;;5.62;1.60;;;;;;;5.40;79.71;99011.41;1796752;79;21534;-72
2021/03/12 03:08:57;;;;;;;2.42;1.20;;;;;;;5.38;79.76;99013.38;1796852;79;21135;-72
2021/03/12 03:11:23;;;;;;;2.40;1.60;;;;;;;5.34;79.77;99005.48;1796891;79;21195;-73
2021/03/12 03:13:49;;;;;;;4.62;1.70;;;;;;;5.31;79.79;99008.97;1796268;79;21167;-73
2021/03/12 03:16:19;;;;;;;5.00;1.80;;;;;;;5.27;79.83;99016.41;1738267;79;21179;-73
2021/03/12 03:18:46;;;;;;;;;;;;;;;5.25;79.88;99018.37;1799486;79;21139;-73
2021/03/12 03:21:14;;;;;;;3.55;1.60;;;;;;;5.25;79.92;99014.91;1790153;79;20246;-73
2021/03/12 03:23:43;;;;;;;4.12;2.40;;;;;;;5.23;79.93;99018.23;1788422;80;21151;-73
2021/03/12 03:26:09;;;;;;;4.83;2.27;;;;;;;5.20;79.96;99019.41;1788453;80;21671;-73
2021/03/12 03:28:36;;;;;;;4.00;2.20;;;;;;;5.19;79.99;99024.36;1788279;80;22141;-73
2021/03/12 03:31:03;;;;;;;6.28;2.22;;;;;;;5.16;80.01;99022.05;1787989;80;21159;-73
2021/03/12 03:33:30;;;;;;;4.53;2.12;;;;;;;5.16;80.03;99023.87;1787867;80;21203;-72
2021/03/12 03:35:57;;;;;;;5.42;2.50;;;;;;;5.16;80.04;99032.63;1787749;80;21168;-73
2021/03/12 03:38:23;;;;;;;4.70;2.95;;;;;;;5.16;80.06;99033.12;1787857;80;21625;-73
2021/03/12 03:40:50;;;;;;;6.67;2.33;;;;;;;5.15;80.11;99033.61;1787936;80;21209;-73
2021/03/12 03:43:24;;;;;;;9.30;2.75;;;;;;;5.17;80.12;99034.28;1787531;79;21136;-73
2021/03/12 03:45:51;;;;;;;9.13;3.85;;;;;;;5.19;80.15;99032.28;1787918;80;21151;-73
2021/03/12 03:48:17;;;;;;;7.12;2.12;;;;;;;5.23;80.21;99040.70;1787737;80;21191;-73
2021/03/12 03:50:44;;;;;;;4.83;2.45;;;;;;;5.24;80.26;99038.39;1787861;80;21132;-73
2021/03/12 03:53:10;;;;;;;5.08;2.58;;;;;;;5.26;80.31;99046.47;1787828;80;21604;-73
2021/03/12 03:55:37;;;;;;;6.67;2.50;;;;;;;5.28;80.32;99052.39;1787821;80;21600;-73
2021/03/12 03:58:03;;;;;;;5.65;2.27;;;;;;;5.29;80.34;99054.55;1787674;80;21167;-73
2021/03/12 04:00:29;;;;;;;5.72;2.40;;;;;;;5.29;80.38;99058.02;1752762;80;21163;-72
2021/03/12 04:02:57;;;;;;;4.62;1.98;;;;;;;5.30;80.43;99058.36;1787840;80;21589;-73
2021/03/12 04:05:23;;;;;;;8.58;2.20;;;;;;;5.33;80.45;99058.02;1752795;80;21205;-73
2021/03/12 04:07:50;;;;;;;5.67;2.30;;;;;;;5.32;80.47;99055.03;1787819;80;21622;-73
2021/03/12 04:10:16;;;;;;;6.60;2.55;;;;;;;5.31;80.50;99051.25;1787747;80;21143;-73
2021/03/12 04:12:43;;;;;;;3.25;1.70;;;;;;;5.27;80.49;99056.05;1787616;80;21351;-73
2021/03/12 04:15:10;;;;;;;5.97;2.00;;;;;;;5.24;80.49;99067.46;1787689;80;21135;-73
2021/03/12 04:17:36;;;;;;;5.20;2.08;;;;;;;5.21;80.53;99059.35;1787609;79;21310;-73
2021/03/12 04:20:05;;;;;;;8.05;1.98;;;;;;;5.19;80.55;99065.31;1787483;80;21581;-72
2021/03/12 04:22:31;;;;;;;5.05;2.20;;;;;;;5.19;80.54;99079.84;1787490;80;21148;-73
2021/03/12 04:25:01;;;;;;;6.03;1.98;;;;;;;5.16;80.55;99077.55;1787585;80;21123;-72
2021/03/12 04:27:28;;;;;;;5.15;2.12;;;;;;;5.15;80.58;99070.60;1757520;80;21147;-73
2021/03/12 04:29:54;;;;;;;5.70;1.95;;;;;;;5.13;80.61;99071.28;1787390;80;22110;-73
2021/03/12 04:32:21;;;;;;;3.70;1.62;;;;;;;5.09;80.59;99067.32;1787512;80;21147;-72
2021/03/12 04:34:47;;;;;;;6.62;2.12;;;;;;;5.06;80.59;99065.51;1787386;80;21135;-72
2021/03/12 04:37:14;;;;;;;3.77;1.90;;;;;;;5.03;80.59;99070.64;1756815;80;21195;-72
2021/03/12 04:39:40;;;;;;;7.37;2.70;;;;;;;4.99;80.60;99069.32;1756652;80;21183;-73
2021/03/12 04:42:06;;;;;;;2.75;1.40;;;;;;;4.99;80.61;99077.24;1787438;80;22002;-73
2021/03/12 04:44:35;;;;;;;7.65;2.72;;;;;;;5.00;80.61;99074.91;1787166;80;21640;-72
2021/03/12 04:47:02;;;;;;;5.45;2.67;;;;;;;5.02;80.58;99076.91;1787579;80;21140;-72
2021/03/12 04:49:29;;;;;;;3.95;1.77;;;;;;;5.00;80.59;99082.83;1787450;80;21115;-73
2021/03/12 04:51:55;;;;;;;5.60;1.85;;;;;;;4.98;80.59;99079.55;1787537;80;21548;-73
2021/03/12 04:54:22;;;;;;;4.80;1.77;;;;;;;4.97;80.59;99077.89;1787579;80;21205;-73
2021/03/12 04:56:48;;;;;;;5.30;1.77;;;;;;;4.98;80.56;99084.83;1787324;80;21171;-72
2021/03/12 04:59:14;;;;;;;2.95;1.57;;;;;;;4.99;80.57;99091.77;1787358;80;21192;-72
2021/03/12 05:01:42;;;;;;;3.87;1.90;;;;;;;4.99;80.55;99086.48;1787525;80;21136;-72
2021/03/12 05:04:09;;;;;;;6.12;2.25;;;;;;;4.99;80.55;99094.41;1787481;80;21100;-72
2021/03/12 05:06:37;;;;;;;5.65;2.00;;;;;;;5.00;80.53;99094.23;1787435;80;21808;-73
2021/03/12 05:09:04;;;;;;;4.90;2.17;;;;;;;4.98;80.51;99100.68;1787569;80;21147;-72
2021/03/12 05:11:30;;;;;;;5.45;2.55;;;;;;;4.97;80.51;99097.70;1787480;80;21172;-73
2021/03/12 05:13:56;;;;;;;7.75;1.75;;;;;;;4.96;80.50;99102.67;1787394;80;21143;-73
2021/03/12 05:16:22;;;;;;;7.35;2.85;;;;;;;4.96;80.46;99107.95;1787654;80;21600;-73
2021/03/12 05:18:49;;;;;;;5.70;1.62;;;;;;;4.94;80.45;99117.84;1787614;80;22167;-72
2021/03/12 05:21:15;;;;;;;4.95;2.25;;;;;;;4.96;80.44;99121.17;1774786;80;21195;-72
2021/03/12 05:23:41;;;;;;;6.17;1.90;;;;;;;4.94;80.44;99121.32;1764757;81;21127;-72
2021/03/12 05:26:08;;;;;;;10.43;1.80;;;;;;;4.94;80.43;99116.53;1764842;81;21159;-72
2021/03/12 05:28:35;;;;;;;2.50;1.85;;;;;;;4.96;80.41;99123.81;1732714;81;21191;-72
2021/03/12 05:31:01;;;;;;;5.22;1.80;;;;;;;4.94;80.41;99117.84;1764679;81;21314;-72
2021/03/12 05:33:27;;;;;;;7.37;1.95;;;;;;;4.93;80.38;99128.08;1764701;81;21155;-72
2021/03/12 05:35:54;;;;;;;7.62;1.80;;;;;;;4.93;80.38;99129.39;1764630;81;21173;-72
2021/03/12 05:38:20;;;;;;;4.78;2.12;;;;;;;4.94;80.35;99130.56;1764756;81;21671;-72
2021/03/12 05:40:46;;;;;;;8.45;3.12;;;;;;;4.97;80.31;99126.76;1764284;81;21580;-73
2021/03/12 05:43:12;;;;;;;10.40;3.15;;;;;;;5.00;80.33;99131.70;1764459;81;21249;-73
2021/03/12 05:45:40;;;;;;;4.83;2.52;;;;;;;5.01;80.33;99125.44;1764648;81;21173;-72
2021/03/12 05:48:07;;;;;;;17.65;3.52;;;;;;;5.01;80.32;99137.33;1764348;81;21616;-72
2021/03/12 05:50:34;;;;;;;7.67;3.50;;;;;;;5.00;80.29;99151.52;1764364;81;21198;-73
2021/03/12 05:53:00;;;;;;;7.42;2.47;;;;;;;5.00;80.26;99151.52;1764703;81;21533;-72
2021/03/12 05:55:27;;;;;;;5.80;2.58;;;;;;;5.00;80.24;99156.80;1764759;81;21171;-73
2021/03/12 05:57:53;;;;;;;6.00;1.95;;;;;;;4.99;80.22;99164.42;1707967;81;21219;-72
2021/03/12 06:00:20;;;;;;;5.47;2.10;;;;;;;5.00;80.20;99167.38;1764695;81;21811;-73
2021/03/12 06:02:47;;;;;;;5.60;2.22;;;;;;;5.01;80.19;99164.58;1764746;81;21163;-72
2021/03/12 06:05:13;;;;;;;5.22;2.58;;;;;;;5.04;80.15;99170.02;1764657;81;21135;-73
2021/03/12 06:07:39;;;;;;;7.95;2.98;;;;;;;5.02;80.15;99176.80;1764794;81;21794;-72
2021/03/12 06:10:07;;;;;;;5.92;2.52;;;;;;;5.01;80.13;99182.24;1764591;81;21159;-72
2021/03/12 06:12:34;;;;;;;6.62;3.12;;;;;;;5.00;80.10;99189.83;1764616;81;21632;-73
2021/03/12 06:15:03;;;;;;;5.90;3.08;;;;;;;4.97;80.08;99201.55;1764548;81;21240;-73
2021/03/12 06:17:40;;;;;;;13.43;7.50;;;;;;;4.97;80.09;99206.02;1763977;81;21699;-73
2021/03/12 06:20:10;;;;;;;7.75;3.22;;;;;;;4.98;80.06;99214.27;1764651;81;21185;-73
2021/03/12 06:22:37;;;;;;;5.35;2.30;;;;;;;5.00;80.04;99218.40;1786745;79;21200;-73
2021/03/12 06:25:19;;;;;;;5.47;2.67;;;;;;;5.03;80.04;99229.16;1787551;80;21569;-73
2021/03/12 06:27:46;;;;;;;7.40;2.75;;;;;;;5.05;80.02;99233.77;1786524;80;21176;-73
2021/03/12 06:30:14;;;;;;;5.05;2.87;;;;;;;5.08;80.00;99235.25;1787754;80;21669;-73
2021/03/12 06:32:45;;;;;;;5.25;2.92;;;;;;;5.10;79.99;99240.73;1787594;80;21204;-73
2021/03/12 06:35:25;;;;;;;8.40;3.08;;;;;;;5.13;79.98;99244.36;1786517;80;21637;-73
2021/03/12 06:37:52;;;;;;;3.60;2.40;;;;;;;5.14;79.94;99249.95;1784853;78;21163;-73
2021/03/12 06:40:24;;;;;;;5.53;2.45;;;;;;;5.18;79.92;99257.06;1787222;80;21160;-72
2021/03/12 06:43:07;;;;;;;6.85;4.92;;;;;;;5.17;79.90;99261.55;1787699;80;21172;-72
2021/03/12 06:45:43;;;;;;;10.93;9.35;;;;;;;5.17;79.88;99274.76;1786901;80;21257;-73
2021/03/12 06:48:15;;;;;;;10.48;7.55;;;;;;;5.16;79.88;99275.73;1775192;80;21830;-73
2021/03/12 06:50:49;;;;;;;6.67;4.10;;;;;;;5.13;79.87;99283.99;1762114;80;21148;-73
2021/03/12 06:53:22;;;;;;;8.68;4.55;;;;;;;5.11;79.88;99289.09;1779257;80;21132;-73
2021/03/12 06:55:49;;;;;;;6.97;3.62;;;;;;;5.09;79.87;99293.23;1779152;80;21113;-73
2021/03/12 06:58:15;;;;;;;24.02;10.55;;;;;;;5.09;79.91;99293.23;1778942;80;22109;-73
2021/03/12 07:00:42;;;;;;;10.25;4.78;;;;;;;5.10;79.88;99290.92;1776431;80;21498;-73
2021/03/12 07:03:32;;;;;;;16.00;7.30;;;;;;;5.12;79.93;99308.75;1755513;80;21140;-73
2021/03/12 07:06:04;;;;;;;;;;;;;;;5.14;79.92;99313.89;1778483;80;21160;-73
2021/03/12 07:08:33;;;;;;;6.35;3.50;;;;;;;5.14;79.94;99316.02;1774649;78;20389;-73
2021/03/12 07:10:59;;;;;;;7.90;6.12;;;;;;;5.15;79.93;99320.81;1785532;80;21184;-74
2021/03/12 07:13:26;;;;;;;9.58;3.58;;;;;;;5.17;79.96;99327.61;1781098;80;21231;-73
2021/03/12 07:15:54;;;;;;;8.53;6.22;;;;;;;5.22;79.96;99329.74;1785468;80;21278;-74
2021/03/12 07:18:21;;;;;;;14.10;8.25;;;;;;;5.23;79.97;99340.17;1785606;80;21203;-74
2021/03/12 07:20:47;;;;;;;8.25;6.08;;;;;;;5.24;80.00;99347.09;1784871;79;21580;-74
2021/03/12 07:23:17;;;;;;;9.20;5.17;;;;;;;5.27;80.00;99354.72;1762899;80;22590;-74
2021/03/12 07:25:45;;;;;;;10.53;5.75;;;;;;;5.31;80.01;99353.37;1762120;80;21172;-74
2021/03/12 07:28:15;;;;;;;5.40;3.17;;;;;;;5.36;80.00;99358.19;1775625;80;21143;-74
2021/03/12 07:30:43;;;;;;;4.75;3.00;;;;;;;5.42;79.97;99355.72;1758286;80;21184;-74
2021/03/12 07:33:09;;;;;;;20.17;9.68;;;;;;;5.51;79.96;99361.86;1707988;81;21144;-73
2021/03/12 07:35:37;;;;;;;27.50;13.80;;;;;;;5.59;79.95;99375.10;1713281;81;22163;-73
2021/03/12 07:38:10;;;;;;;19.12;10.40;;;;;;;5.64;79.90;99374.59;1738871;81;21163;-73
2021/03/12 07:40:37;;;;;;;29.95;15.40;;;;;;;5.65;79.89;99388.16;1734450;81;21141;-74
2021/03/12 07:43:03;;;;;;;23.00;14.35;;;;;;;5.60;79.85;99386.48;1745083;81;21196;-74
2021/03/12 07:45:30;;;;;;;20.43;10.95;;;;;;;5.54;79.82;99385.33;1685611;81;21139;-74
2021/03/12 07:47:56;;;;;;;23.35;12.85;;;;;;;5.48;79.77;99400.04;1741767;81;22124;-73
2021/03/12 07:50:31;;;;;;;6.37;3.25;;;;;;;5.45;79.71;99414.08;1725718;81;21184;-74
2021/03/12 07:53:00;;;;;;;7.50;4.87;;;;;;;5.38;79.66;99409.91;1725102;81;21244;-74
2021/03/12 07:55:45;;;;;;;7.22;4.55;;;;;;;5.34;79.60;99420.98;1727346;81;21191;-74
2021/03/12 07:58:14;;;;;;;7.92;4.70;;;;;;;5.33;79.56;99428.08;1717074;83;21148;-72
2021/03/12 08:00:58;;;;;;;11.05;6.42;;;;;;;5.34;79.50;99434.20;1648601;83;21292;-74
2021/03/12 08:03:32;;;;;;;5.42;2.85;;;;;;;5.34;79.47;99444.28;1735163;81;21271;-74
2021/03/12 08:05:58;;;;;;;7.05;3.40;;;;;;;5.34;79.41;99440.31;1728796;81;21281;-74
2021/03/12 08:08:38;;;;;;;6.60;3.60;;;;;;;5.24;79.33;99455.45;1718680;82;21601;-74
2021/03/12 08:11:38;;;;;;;3.85;2.20;;;;;;;5.15;79.30;99459.05;1721566;82;21235;-74
2021/03/12 08:17:04;;;;;;;11.48;7.45;;;;;;;5.03;79.17;99466.42;1800912;78;22221;-73
2021/03/12 08:19:37;;;;;;;7.53;4.85;;;;;;;4.95;79.13;99463.77;1756657;80;21174;-74
2021/03/12 08:22:31;;;;;;;13.28;6.28;;;;;;;4.94;79.10;99466.55;1757195;80;21302;-73
2021/03/12 08:24:58;;;;;;;8.15;3.98;;;;;;;4.90;79.06;99469.99;1751352;79;21249;-73
2021/03/12 08:27:47;;;;;;;4.45;2.80;;;;;;;4.95;79.06;99477.46;1760562;80;21175;-73
2021/03/12 08:30:28;;;;;;;9.48;4.15;;;;;;;5.13;79.04;99476.90;1766217;79;21132;-73
2021/03/12 08:32:56;;;;;;;6.83;3.50;;;;;;;5.37;79.01;99488.06;1737833;79;21204;-73
2021/03/12 08:35:42;;;;;;;6.78;3.40;;;;;;;5.50;78.90;99481.34;1761524;79;21169;-73
2021/03/12 08:38:28;;;;;;;8.50;4.55;;;;;;;5.58;78.78;99487.64;1762644;80;21194;-74
2021/03/12 08:41:10;;;;;;;24.02;13.55;;;;;;;5.57;78.68;99495.23;1754683;80;21197;-73
2021/03/12 08:43:49;;;;;;;23.45;14.80;;;;;;;5.50;78.62;99518.84;1751004;79;21151;-73
2021/03/12 08:46:24;;;;;;;12.17;9.33;;;;;;;5.40;78.60;99518.98;1762545;80;21207;-73
2021/03/12 08:48:54;;;;;;;20.08;13.75;;;;;;;5.31;78.57;99515.95;1760005;80;21564;-74
2021/03/12 08:51:26;;;;;;;16.52;10.65;;;;;;;5.27;78.58;99532.30;1764233;80;21596;-73
2021/03/12 08:53:56;;;;;;;9.00;5.40;;;;;;;5.20;78.59;99520.21;1757081;80;21632;-73
2021/03/12 08:56:35;;;;;;;5.90;5.08;;;;;;;5.18;78.60;99523.48;1758438;80;21144;-73
2021/03/12 08:59:03;;;;;;;4.58;3.55;;;;;;;5.19;78.60;99531.77;1753420;80;21518;-73
2021/03/12 09:01:31;;;;;;;7.35;4.47;;;;;;;5.19;78.61;99534.41;1764644;80;21197;-74
2021/03/12 09:03:59;;;;;;;18.23;7.50;;;;;;;5.22;78.64;99536.73;1758455;80;21178;-74
2021/03/12 09:06:29;;;;;;;13.85;7.62;;;;;;;5.27;78.63;99547.67;1757612;80;21151;-73
2021/03/12 09:08:55;;;;;;;16.93;7.00;;;;;;;5.30;78.62;99532.81;1760702;80;21154;-73
2021/03/12 09:11:23;;;;;;;14.28;6.62;;;;;;;5.36;78.62;99549.36;1759427;80;21413;-73
2021/03/12 09:13:50;;;;;;;38.63;17.17;;;;;;;5.41;78.60;99548.41;1743148;81;21200;-73
2021/03/12 09:16:20;;;;;;;21.77;11.10;;;;;;;5.42;78.60;99546.56;1741248;81;21700;-72
2021/03/12 09:18:47;;;;;;;47.35;25.68;;;;;;;5.36;78.57;99550.69;1697035;83;21196;-72
2021/03/12 09:21:17;;;;;;;25.57;13.03;;;;;;;5.33;78.55;99554.97;1739232;81;21156;-73
2021/03/12 09:23:53;;;;;;;11.60;6.93;;;;;;;5.38;78.55;99566.41;1750176;81;21602;-73
2021/03/12 09:26:31;;;;;;;16.62;8.20;;;;;;;5.43;78.54;99563.61;1750742;81;22220;-73
2021/03/12 09:29:03;;;;;;;7.28;4.17;;;;;;;5.49;78.51;99565.61;1748597;81;22295;-73
2021/03/12 09:31:37;;;;;;;8.95;4.78;;;;;;;5.50;78.48;99569.92;1753307;81;21139;-73
2021/03/12 09:34:05;;;;;;;16.10;8.18;;;;;;;5.51;78.47;99568.95;1742534;80;21200;-73
2021/03/12 09:36:46;;;;;;;13.72;6.45;;;;;;;5.49;78.45;99569.58;1739471;81;21160;-73
2021/03/12 09:39:23;;;;;;;11.93;6.20;;;;;;;5.50;78.39;99575.70;1741129;81;21251;-73
2021/03/12 09:42:00;;;;;;;10.93;4.40;;;;;;;5.54;78.34;99571.27;1744940;81;21537;-73
2021/03/12 09:44:27;;;;;;;9.20;5.80;;;;;;;5.64;78.28;99571.63;1745178;81;21612;-73
2021/03/12 09:46:58;;;;;;;13.05;7.87;;;;;;;5.74;78.19;99569.19;1747319;81;21196;-73
2021/03/12 09:49:28;;;;;;;9.78;5.28;;;;;;;5.85;78.13;99578.66;1746834;81;21167;-74
2021/03/12 09:51:59;;;;;;;8.68;5.50;;;;;;;5.97;78.06;99582.72;1741318;81;21195;-73
2021/03/12 09:54:29;;;;;;;8.48;4.83;;;;;;;6.12;77.99;99581.12;1723838;81;21167;-73
2021/03/12 09:56:56;;;;;;;13.50;6.28;;;;;;;6.25;77.89;99582.80;1723657;81;21151;-73
2021/03/12 09:59:29;;;;;;;13.40;6.72;;;;;;;6.26;77.75;99589.72;1740434;81;21178;-74
2021/03/12 10:02:06;;;;;;;6.35;3.90;;;;;;;6.23;77.63;99583.44;1749097;80;21139;-73
2021/03/12 10:04:38;;;;;;;13.98;7.08;;;;;;;6.19;77.47;99591.88;1741262;81;21202;-72
2021/03/12 10:07:11;;;;;;;11.83;5.75;;;;;;;6.22;77.42;99589.73;1744484;81;21166;-73
2021/03/12 10:09:39;;;;;;;10.70;4.75;;;;;;;6.39;77.29;99590.10;1745627;81;21548;-74
2021/03/12 10:12:15;;;;;;;8.68;4.25;;;;;;;6.54;77.11;99593.74;1745987;81;21179;-73
2021/03/12 10:14:43;;;;;;;6.72;4.30;;;;;;;6.64;76.93;99600.73;1735487;81;21161;-73
2021/03/12 10:17:19;;;;;;;8.28;5.80;;;;;;;6.72;76.77;99592.80;1746222;81;21200;-73
2021/03/12 10:20:15;;;;;;;12.18;5.97;;;;;;;6.73;76.58;99600.55;1737489;81;21164;-74
2021/03/12 10:22:43;;;;;;;7.28;4.70;;;;;;;6.78;76.48;99592.95;1741340;81;21199;-73
2021/03/12 10:25:16;;;;;;;9.48;5.42;;;;;;;6.86;76.31;99589.48;1750821;81;21170;-74
2021/03/12 10:28:02;;;;;;;5.10;3.83;;;;;;;7.01;76.18;99593.09;1753555;81;21134;-73
2021/03/12 10:30:51;;;;;;;22.52;8.83;;;;;;;7.19;76.02;99590.27;1739889;81;21188;-74
2021/03/12 10:33:23;;;;;;;6.65;4.37;;;;;;;7.18;75.86;99593.41;1748902;81;21155;-74
2021/03/12 10:35:54;;;;;;;10.20;5.45;;;;;;;7.14;75.70;99596.09;1740335;81;21168;-74
2021/03/12 10:38:28;;;;;;;14.83;5.37;;;;;;;7.11;75.55;99603.03;1743661;80;21172;-74
2021/03/12 10:40:58;;;;;;;12.37;6.20;;;;;;;7.02;75.37;99604.87;1729466;81;21153;-74
2021/03/12 10:43:30;;;;;;;11.15;5.72;;;;;;;6.96;75.17;99605.55;1729324;81;21257;-74
2021/03/12 10:46:00;;;;;;;11.45;6.95;;;;;;;6.97;75.02;99615.13;1729554;81;21122;-74
2021/03/12 10:48:28;;;;;;;9.90;5.87;;;;;;;6.99;74.89;99600.41;1752822;81;21636;-74
2021/03/12 10:50:56;;;;;;;8.70;5.40;;;;;;;7.01;74.75;99612.98;1759325;80;21147;-74
2021/03/12 10:53:23;;;;;;;9.55;5.42;;;;;;;6.95;74.55;99608.34;1759332;81;21129;-74
2021/03/12 10:55:51;;;;;;;7.60;4.72;;;;;;;6.89;74.43;99611.67;1742442;81;22823;-74
2021/03/12 10:58:28;;;;;;;12.60;6.12;;;;;;;6.82;74.33;99619.46;1729295;81;21176;-74
2021/03/12 11:01:09;;;;;;;13.65;5.75;;;;;;;6.74;74.25;99620.77;1749633;81;21203;-73
2021/03/12 11:03:37;;;;;;;12.03;5.03;;;;;;;6.66;74.26;99615.95;1729622;81;21188;-73
2021/03/12 11:06:04;;;;;;;11.78;4.90;;;;;;;6.58;74.19;99619.94;1734710;81;21147;-74
2021/03/12 11:08:30;;;;;;;20.50;8.68;;;;;;;6.61;74.17;99624.90;1739325;81;21240;-73
2021/03/12 11:10:57;;;;;;;10.10;5.25;;;;;;;6.72;74.12;99621.41;1745131;81;21653;-74
2021/03/12 11:13:24;;;;;;;12.05;5.85;;;;;;;6.85;74.08;99630.22;1734345;81;21109;-73
2021/03/12 11:15:50;;;;;;;12.58;5.08;;;;;;;6.91;74.02;99628.23;1737217;81;21309;-74
2021/03/12 11:18:16;;;;;;;9.75;5.78;;;;;;;6.89;73.91;99616.97;1754594;81;21115;-74
2021/03/12 11:20:42;;;;;;;11.15;6.53;;;;;;;6.86;73.84;99616.78;1757249;81;21439;-73
2021/03/12 11:23:10;;;;;;;20.30;10.65;;;;;;;6.85;73.68;99624.92;1729685;82;21644;-73
2021/03/12 11:25:38;;;;;;;10.45;5.85;;;;;;;6.92;73.56;99635.19;1748086;82;21140;-73
2021/03/12 11:28:05;;;;;;;10.60;5.42;;;;;;;6.96;73.36;99631.22;1746436;82;21204;-73
2021/03/12 11:30:31;;;;;;;9.75;5.62;;;;;;;7.05;73.22;99619.61;1747788;81;21175;-74
2021/03/12 11:32:57;;;;;;;8.65;4.83;;;;;;;7.13;73.01;99626.73;1741584;82;21187;-73
2021/03/12 11:35:24;;;;;;;6.58;4.58;;;;;;;7.16;72.85;99623.25;1748223;81;21629;-74
2021/03/12 11:37:50;;;;;;;16.15;7.08;;;;;;;7.18;72.76;99620.45;1730874;81;21203;-73
2021/03/12 11:40:16;;;;;;;13.30;5.15;;;;;;;7.18;72.63;99629.20;1717623;83;21172;-74
2021/03/12 11:42:43;;;;;;;6.90;3.55;;;;;;;7.19;72.52;99618.94;1716917;83;21125;-74
2021/03/12 11:45:12;;;;;;;6.67;3.77;;;;;;;7.23;72.46;99615.45;1717456;83;22367;-74
2021/03/12 11:47:39;;;;;;;12.37;7.75;;;;;;;7.28;72.39;99624.55;1717566;83;21735;-74
2021/03/12 11:50:15;;;;;;;13.00;8.63;;;;;;;7.31;72.31;99622.08;1717604;83;21112;-74
2021/03/12 11:52:41;;;;;;;12.68;8.80;;;;;;;7.29;72.18;99616.09;1717337;83;21120;-73
2021/03/12 11:55:08;;;;;;;9.00;5.30;;;;;;;7.27;72.12;99624.24;1717677;83;21477;-73
2021/03/12 11:57:36;;;;;;;6.55;4.35;;;;;;;7.24;72.04;99623.25;1717499;83;21241;-73
2021/03/12 12:00:08;;;;;;;8.80;5.67;;;;;;;7.23;71.99;99622.08;1717398;82;21116;-74
2021/03/12 12:02:34;;;;;;;9.15;3.92;;;;;;;7.24;71.94;99623.75;1717229;83;21148;-74
2021/03/12 12:05:02;;;;;;;7.03;3.92;;;;;;;7.29;71.77;99623.56;1717536;83;21885;-74
2021/03/12 12:07:28;;;;;;;6.25;4.08;;;;;;;7.37;71.53;99632.84;1717346;82;21123;-74
2021/03/12 12:09:55;;;;;;;7.45;3.90;;;;;;;7.42;71.21;99635.00;1717697;83;21234;-74
2021/03/12 12:12:21;;;;;;;15.32;6.65;;;;;;;7.43;70.86;99632.66;1717517;82;21215;-74